createdAt,value
2019-01-20T00:01:20.114Z,101423.00
2019-01-20T00:03:49.493Z,101418.00
2019-01-20T00:06:18.891Z,101410.00
2019-01-20T00:08:48.263Z,101411.00
2019-01-20T00:11:17.650Z,101412.00
2019-01-20T00:13:47.373Z,101407.00
2019-01-20T00:16:17.101Z,101417.00
2019-01-20T00:18:46.479Z,101405.00
2019-01-20T00:21:15.867Z,101405.00
2019-01-20T00:23:46.002Z,101396.00
2019-01-20T00:26:15.394Z,101401.00
2019-01-20T00:28:44.779Z,101415.00
2019-01-20T00:31:14.174Z,101404.00
2019-01-20T00:33:43.628Z,101405.00
2019-01-20T00:36:13.206Z,101401.00
2019-01-20T00:38:42.582Z,101408.00
2019-01-20T00:41:11.968Z,101402.00
2019-01-20T00:43:41.365Z,101405.00
2019-01-20T00:46:10.747Z,101400.00
2019-01-20T00:48:40.165Z,101396.00
2019-01-20T00:51:09.829Z,101406.00
2019-01-20T00:53:39.213Z,101402.00
2019-01-20T00:56:08.870Z,101400.00
2019-01-20T00:58:38.617Z,101409.00
2019-01-20T01:01:08.272Z,101411.00
2019-01-20T01:03:38.557Z,101406.00
2019-01-20T01:06:07.966Z,101396.00
2019-01-20T01:08:37.331Z,101401.00
2019-01-20T01:11:06.723Z,101402.00
2019-01-20T01:13:36.617Z,101402.00
2019-01-20T01:16:06.094Z,101404.00
2019-01-20T01:18:35.475Z,101404.00
2019-01-20T01:21:05.187Z,101411.00
2019-01-20T01:23:34.566Z,101398.00
2019-01-20T01:26:05.373Z,101398.00
2019-01-20T01:28:34.753Z,101397.00
2019-01-20T01:31:04.216Z,101406.00
2019-01-20T01:33:33.589Z,101400.00
2019-01-20T01:36:02.993Z,101401.00
2019-01-20T01:38:32.369Z,101396.00
2019-01-20T01:41:02.104Z,101391.00
2019-01-20T01:43:31.517Z,101390.00
2019-01-20T01:46:01.248Z,101389.00
2019-01-20T01:48:30.591Z,101394.00
2019-01-20T01:50:59.990Z,101385.00
2019-01-20T01:53:29.400Z,101386.00
2019-01-20T01:55:58.774Z,101391.00
2019-01-20T01:58:28.165Z,101394.00
2019-01-20T02:00:57.556Z,101384.00
2019-01-20T02:03:26.948Z,101384.00
2019-01-20T02:05:56.361Z,101376.00
2019-01-20T02:08:25.754Z,101373.00
2019-01-20T02:10:56.818Z,101378.00
2019-01-20T02:13:26.221Z,101378.00
2019-01-20T02:15:55.605Z,101378.00
2019-01-20T02:18:25.010Z,101369.00
2019-01-20T02:20:54.410Z,101389.00
2019-01-20T02:23:24.103Z,101381.00
2019-01-20T02:25:53.488Z,101382.00
2019-01-20T02:28:26.007Z,101381.00
2019-01-20T02:30:55.689Z,101384.00
2019-01-20T02:33:25.066Z,101384.00
2019-01-20T02:35:54.452Z,101376.00
2019-01-20T02:38:23.850Z,101386.00
2019-01-20T02:40:53.510Z,101390.00
2019-01-20T02:43:24.494Z,101384.00
2019-01-20T02:45:53.909Z,101390.00
2019-01-20T02:48:23.277Z,101388.00
2019-01-20T02:50:52.905Z,101385.00
2019-01-20T02:53:22.337Z,101385.00
2019-01-20T02:55:51.678Z,101375.00
2019-01-20T02:58:22.332Z,101376.00
2019-01-20T03:00:51.708Z,101386.00
2019-01-20T03:03:21.097Z,101370.00
2019-01-20T03:05:50.507Z,101379.00
2019-01-20T03:08:19.883Z,101370.00
2019-01-20T03:10:50.811Z,101377.00
2019-01-20T03:13:20.597Z,101382.00
2019-01-20T03:15:49.989Z,101377.00
2019-01-20T03:18:19.368Z,101367.00
2019-01-20T03:20:48.851Z,101372.00
2019-01-20T03:23:18.245Z,101378.00
2019-01-20T03:25:47.623Z,101370.00
2019-01-20T03:28:17.019Z,101377.00
2019-01-20T03:30:47.758Z,101380.00
2019-01-20T03:33:17.124Z,101376.00
2019-01-20T03:35:46.964Z,101376.00
2019-01-20T03:38:16.350Z,101382.00
2019-01-20T03:40:46.037Z,101378.00
2019-01-20T03:43:15.433Z,101374.00
2019-01-20T03:45:44.810Z,101366.00
2019-01-20T03:48:14.182Z,101369.00
2019-01-20T03:50:43.579Z,101359.00
2019-01-20T03:53:12.947Z,101368.00
2019-01-20T03:55:42.342Z,101372.00
2019-01-20T03:58:11.851Z,101378.00
2019-01-20T04:00:42.609Z,101366.00
2019-01-20T04:03:12.301Z,101377.00
2019-01-20T04:05:42.015Z,101376.00
2019-01-20T04:08:11.398Z,101348.00
2019-01-20T04:10:40.790Z,101382.00
2019-01-20T04:13:10.252Z,101383.00
2019-01-20T04:15:39.635Z,101380.00
2019-01-20T04:18:08.994Z,101386.00
2019-01-20T04:20:38.414Z,101385.00
2019-01-20T04:23:08.050Z,101380.00
2019-01-20T04:25:37.752Z,101381.00
2019-01-20T04:28:07.214Z,101389.00
2019-01-20T04:30:36.602Z,101388.00
2019-01-20T04:33:07.100Z,101384.00
2019-01-20T04:35:36.815Z,101382.00
2019-01-20T04:38:06.204Z,101382.00
2019-01-20T04:40:35.588Z,101369.00
2019-01-20T04:43:05.268Z,101378.00
2019-01-20T04:45:34.622Z,101381.00
2019-01-20T04:48:04.354Z,101382.00
2019-01-20T04:50:33.765Z,101379.00
2019-01-20T04:53:03.141Z,101375.00
2019-01-20T04:55:32.590Z,101391.00
2019-01-20T04:58:01.981Z,101386.00
2019-01-20T05:00:31.385Z,101391.00
2019-01-20T05:03:00.765Z,101381.00
2019-01-20T05:05:30.411Z,101386.00
2019-01-20T05:07:59.816Z,101383.00
2019-01-20T05:10:29.201Z,101387.00
2019-01-20T05:12:58.586Z,101378.00
2019-01-20T05:15:27.985Z,101382.00
2019-01-20T05:17:57.363Z,101391.00
2019-01-20T05:20:26.737Z,101382.00
2019-01-20T05:22:56.472Z,101384.00
2019-01-20T05:25:25.848Z,101378.00
2019-01-20T05:27:57.383Z,101379.00
2019-01-20T05:30:26.837Z,101385.00
2019-01-20T05:32:56.230Z,101382.00
2019-01-20T05:35:26.706Z,101376.00
2019-01-20T05:37:56.104Z,101384.00
2019-01-20T05:40:25.485Z,101385.00
2019-01-20T05:42:54.908Z,101382.00
2019-01-20T05:45:25.504Z,101386.00
2019-01-20T05:47:55.211Z,101392.00
2019-01-20T05:50:25.176Z,101392.00
2019-01-20T05:52:54.572Z,101387.00
2019-01-20T05:55:24.242Z,101392.00
2019-01-20T05:57:53.631Z,101394.00
2019-01-20T06:00:27.172Z,101381.00
2019-01-20T06:02:56.597Z,101378.00
2019-01-20T06:05:26.203Z,101387.00
2019-01-20T06:07:55.585Z,101393.00
2019-01-20T06:10:24.957Z,101391.00
2019-01-20T06:12:54.597Z,101393.00
2019-01-20T06:15:25.245Z,101388.00
2019-01-20T06:17:54.620Z,101390.00
2019-01-20T06:20:24.016Z,101390.00
2019-01-20T06:22:53.394Z,101391.00
2019-01-20T06:25:22.783Z,101388.00
2019-01-20T06:27:52.564Z,101395.00
2019-01-20T06:30:29.113Z,101403.00
2019-01-20T06:32:58.498Z,101399.00
2019-01-20T06:35:28.480Z,101408.00
2019-01-20T06:37:59.267Z,101410.00
2019-01-20T06:40:28.656Z,101409.00
2019-01-20T06:43:02.264Z,101416.00
2019-01-20T06:45:29.545Z,101409.00
2019-01-20T06:47:58.964Z,101425.00
2019-01-20T06:50:28.312Z,101424.00
2019-01-20T06:52:57.846Z,101425.00
2019-01-20T06:55:27.174Z,101428.00
2019-01-20T06:57:56.592Z,101432.00
2019-01-20T07:00:26.021Z,101431.00
2019-01-20T07:02:55.394Z,101426.00
2019-01-20T07:05:25.096Z,101435.00
2019-01-20T07:07:54.578Z,101428.00
2019-01-20T07:10:23.958Z,101427.00
2019-01-20T07:12:53.392Z,101435.00
2019-01-20T07:15:23.777Z,101437.00
2019-01-20T07:17:53.770Z,101434.00
2019-01-20T07:20:23.180Z,101435.00
2019-01-20T07:22:52.555Z,101444.00
2019-01-20T07:25:22.018Z,101437.00
2019-01-20T07:27:51.764Z,101442.00
2019-01-20T07:30:23.283Z,101428.00
2019-01-20T07:32:52.735Z,101444.00
2019-01-20T07:35:22.159Z,101437.00
2019-01-20T07:37:51.624Z,101447.00
2019-01-20T07:40:23.438Z,101454.00
2019-01-20T07:42:53.027Z,101447.00
2019-01-20T07:45:22.413Z,101451.00
2019-01-20T07:47:51.790Z,101454.00
2019-01-20T07:50:24.594Z,101454.00
2019-01-20T07:52:53.955Z,101446.00
2019-01-20T07:55:23.408Z,101447.00
2019-01-20T07:57:52.872Z,101466.00
2019-01-20T08:00:24.854Z,101462.00
2019-01-20T08:02:54.263Z,101463.00
2019-01-20T08:05:24.209Z,101468.00
2019-01-20T08:07:54.641Z,101468.00
2019-01-20T08:10:27.125Z,101475.00
2019-01-20T08:12:56.805Z,101481.00
2019-01-20T08:15:26.276Z,101475.00
2019-01-20T08:17:55.659Z,101470.00
2019-01-20T08:20:26.326Z,101477.00
2019-01-20T08:22:55.708Z,101486.00
2019-01-20T08:25:25.163Z,101479.00
2019-01-20T08:27:54.549Z,101495.00
2019-01-20T08:30:26.351Z,101489.00
2019-01-20T08:32:56.009Z,101496.00
2019-01-20T08:35:25.873Z,101497.00
2019-01-20T08:37:55.250Z,101499.00
2019-01-20T08:40:28.209Z,101492.00
2019-01-20T08:42:58.319Z,101503.00
2019-01-20T08:45:37.877Z,101495.00
2019-01-20T08:48:14.687Z,101499.00
2019-01-20T08:50:44.512Z,101519.00
2019-01-20T08:53:13.920Z,101505.00
2019-01-20T08:55:43.326Z,101514.00
2019-01-20T08:58:12.782Z,101513.00
2019-01-20T09:00:42.159Z,101518.00
2019-01-20T09:03:11.593Z,101518.00
2019-01-20T09:05:40.994Z,101526.00
2019-01-20T09:08:10.360Z,101516.00
2019-01-20T09:10:39.805Z,101524.00
2019-01-20T09:13:10.790Z,101515.00
2019-01-20T09:15:40.152Z,101528.00
2019-01-20T09:18:09.623Z,101520.00
2019-01-20T09:20:39.003Z,101543.00
2019-01-20T09:23:08.381Z,101536.00
2019-01-20T09:25:38.050Z,101533.00
2019-01-20T09:28:07.727Z,101548.00
2019-01-20T09:30:37.100Z,101541.00
2019-01-20T09:33:06.771Z,101536.00
2019-01-20T09:35:36.158Z,101540.00
2019-01-20T09:38:05.947Z,101529.00
2019-01-20T09:40:35.744Z,101537.00
2019-01-20T09:43:05.521Z,101535.00
2019-01-20T09:45:35.751Z,101533.00
2019-01-20T09:48:06.951Z,101543.00
2019-01-20T09:50:36.635Z,101546.00
2019-01-20T09:53:06.102Z,101548.00
2019-01-20T09:55:35.484Z,101552.00
2019-01-20T09:58:05.345Z,101548.00
2019-01-20T10:00:36.185Z,101544.00
2019-01-20T10:03:05.757Z,101542.00
2019-01-20T10:05:35.139Z,101549.00
2019-01-20T10:08:04.948Z,101549.00
2019-01-20T10:10:34.868Z,101547.00
2019-01-20T10:13:04.273Z,101543.00
2019-01-20T10:15:33.660Z,101544.00
2019-01-20T10:18:03.078Z,101539.00
2019-01-20T10:20:33.801Z,101535.00
2019-01-20T10:23:03.208Z,101537.00
2019-01-20T10:25:32.619Z,101547.00
2019-01-20T10:28:02.112Z,101544.00
2019-01-20T10:30:34.900Z,101548.00
2019-01-20T10:33:04.894Z,101544.00
2019-01-20T10:35:36.019Z,101543.00
2019-01-20T10:38:07.684Z,101541.00
2019-01-20T10:40:37.238Z,101533.00
2019-01-20T10:43:06.762Z,101531.00
2019-01-20T10:45:36.288Z,101544.00
2019-01-20T10:48:07.185Z,101541.00
2019-01-20T10:50:36.575Z,101536.00
2019-01-20T10:53:06.971Z,101538.00
2019-01-20T10:55:36.372Z,101542.00
2019-01-20T10:58:06.104Z,101536.00
2019-01-20T11:00:39.995Z,101542.00
2019-01-20T11:03:10.493Z,101534.00
2019-01-20T11:05:40.220Z,101537.00
2019-01-20T11:08:09.597Z,101540.00
2019-01-20T11:10:40.154Z,101552.00
2019-01-20T11:13:10.033Z,101546.00
2019-01-20T11:15:39.416Z,101534.00
2019-01-20T11:18:08.793Z,101544.00
2019-01-20T11:20:38.172Z,101543.00
2019-01-20T11:23:07.818Z,101543.00
2019-01-20T11:25:40.218Z,101547.00
2019-01-20T11:28:09.721Z,101551.00
2019-01-20T11:30:39.369Z,101548.00
2019-01-20T11:33:08.910Z,101548.00
2019-01-20T11:35:38.377Z,101556.00
2019-01-20T11:38:07.748Z,101544.00
2019-01-20T11:40:37.158Z,101550.00
2019-01-20T11:43:06.555Z,101547.00
2019-01-20T11:45:35.948Z,101553.00
2019-01-20T11:48:06.449Z,101554.00
2019-01-20T11:50:36.275Z,101553.00
2019-01-20T11:53:06.030Z,101554.00
2019-01-20T11:55:35.462Z,101556.00
2019-01-20T11:58:05.005Z,101550.00
2019-01-20T12:00:36.131Z,101549.00
2019-01-20T12:03:06.122Z,101543.00
2019-01-20T12:05:36.142Z,101552.00
2019-01-20T12:08:06.549Z,101539.00
2019-01-20T12:10:36.358Z,101549.00
2019-01-20T12:13:10.202Z,101551.00
2019-01-20T12:15:39.588Z,101535.00
2019-01-20T12:18:09.067Z,101541.00
2019-01-20T12:20:38.445Z,101547.00
2019-01-20T12:23:07.834Z,101539.00
2019-01-20T12:25:37.339Z,101536.00
2019-01-20T12:28:06.739Z,101534.00
2019-01-20T12:30:39.398Z,101533.00
2019-01-20T12:33:09.230Z,101525.00
2019-01-20T12:35:39.020Z,101531.00
2019-01-20T12:38:08.479Z,101533.00
2019-01-20T12:40:44.459Z,101529.00
2019-01-20T12:43:13.843Z,101530.00
2019-01-20T12:45:43.214Z,101528.00
2019-01-20T12:48:12.609Z,101531.00
2019-01-20T12:50:41.981Z,101538.00
2019-01-20T12:53:11.625Z,101531.00
2019-01-20T12:55:41.021Z,101534.00
2019-01-20T12:58:10.713Z,101534.00
2019-01-20T13:00:40.100Z,101536.00
2019-01-20T13:03:09.660Z,101527.00
2019-01-20T13:05:39.037Z,101541.00
2019-01-20T13:08:08.413Z,101523.00
2019-01-20T13:10:37.798Z,101522.00
2019-01-20T13:13:07.175Z,101523.00
2019-01-20T13:15:36.545Z,101532.00
2019-01-20T13:18:06.079Z,101529.00
2019-01-20T13:20:35.460Z,101534.00
2019-01-20T13:23:05.082Z,101551.00
2019-01-20T13:25:34.768Z,101540.00
2019-01-20T13:28:04.148Z,101538.00
2019-01-20T13:30:33.857Z,101538.00
2019-01-20T13:33:03.248Z,101544.00
2019-01-20T13:35:32.616Z,101542.00
2019-01-20T13:38:09.136Z,101547.00
2019-01-20T13:40:53.146Z,101551.00
2019-01-20T13:43:22.526Z,101558.00
2019-01-20T13:45:51.921Z,101552.00
2019-01-20T13:48:21.302Z,101548.00
2019-01-20T13:50:50.687Z,101555.00
2019-01-20T13:53:20.071Z,101553.00
2019-01-20T13:55:49.752Z,101563.00
2019-01-20T13:58:19.138Z,101561.00
2019-01-20T14:00:49.772Z,101556.00
2019-01-20T14:03:19.550Z,101557.00
2019-01-20T14:05:48.928Z,101555.00
2019-01-20T14:08:18.317Z,101556.00
2019-01-20T14:10:47.736Z,101560.00
2019-01-20T14:13:17.120Z,101558.00
2019-01-20T14:15:46.537Z,101567.00
2019-01-20T14:18:15.925Z,101567.00
2019-01-20T14:20:45.366Z,101563.00
2019-01-20T14:23:14.782Z,101565.00
2019-01-20T14:25:44.455Z,101569.00
2019-01-20T14:28:13.840Z,101573.00
2019-01-20T14:30:43.221Z,101583.00
2019-01-20T14:33:12.616Z,101587.00
2019-01-20T14:35:41.998Z,101585.00
2019-01-20T14:38:11.371Z,101589.00
2019-01-20T14:40:40.777Z,101591.00
2019-01-20T14:43:10.156Z,101591.00
2019-01-20T14:45:39.530Z,101595.00
2019-01-20T14:48:09.158Z,101600.00
2019-01-20T14:50:38.534Z,101604.00
2019-01-20T14:53:07.925Z,101595.00
2019-01-20T14:55:37.321Z,101605.00
2019-01-20T14:58:07.127Z,101605.00
2019-01-20T15:00:38.358Z,101613.00
2019-01-20T15:03:08.302Z,101608.00
2019-01-20T15:05:37.738Z,101603.00
2019-01-20T15:08:07.952Z,101607.00
2019-01-20T15:10:37.640Z,101612.00
2019-01-20T15:13:07.026Z,101609.00
2019-01-20T15:15:39.840Z,101602.00
2019-01-20T15:18:09.499Z,101602.00
2019-01-20T15:20:39.296Z,101612.00
2019-01-20T15:23:08.836Z,101598.00
2019-01-20T15:25:38.495Z,101614.00
2019-01-20T15:28:08.324Z,101608.00
2019-01-20T15:30:37.701Z,101617.00
2019-01-20T15:33:07.548Z,101615.00
2019-01-20T15:35:36.933Z,101627.00
2019-01-20T15:38:06.325Z,101616.00
2019-01-20T15:40:35.731Z,101616.00
2019-01-20T15:43:05.859Z,101629.00
2019-01-20T15:45:35.242Z,101636.00
2019-01-20T15:48:06.066Z,101627.00
2019-01-20T15:50:35.868Z,101647.00
2019-01-20T15:53:05.613Z,101635.00
2019-01-20T15:55:35.021Z,101634.00
2019-01-20T15:58:04.590Z,101636.00
2019-01-20T16:00:34.338Z,101630.00
2019-01-20T16:03:03.888Z,101637.00
2019-01-20T16:05:33.283Z,101639.00
2019-01-20T16:08:02.689Z,101639.00
2019-01-20T16:10:32.471Z,101635.00
2019-01-20T16:13:01.847Z,101646.00
2019-01-20T16:15:34.042Z,101651.00
2019-01-20T16:18:03.451Z,101653.00
2019-01-20T16:20:33.081Z,101663.00
2019-01-20T16:23:02.417Z,101654.00
2019-01-20T16:25:34.814Z,101667.00
2019-01-20T16:28:04.463Z,101665.00
2019-01-20T16:30:36.850Z,101651.00
2019-01-20T16:33:06.476Z,101655.00
2019-01-20T16:35:36.020Z,101653.00
2019-01-20T16:38:05.541Z,101660.00
2019-01-20T16:40:35.342Z,101668.00
2019-01-20T16:43:05.189Z,101665.00
2019-01-20T16:45:41.954Z,101665.00
2019-01-20T16:48:10.516Z,101671.00
2019-01-20T16:50:40.126Z,101675.00
2019-01-20T16:53:09.554Z,101669.00
2019-01-20T16:55:39.424Z,101670.00
2019-01-20T16:58:09.036Z,101673.00
2019-01-20T17:00:41.218Z,101671.00
2019-01-20T17:03:11.161Z,101673.00
2019-01-20T17:05:40.604Z,101687.00
2019-01-20T17:08:10.300Z,101693.00
2019-01-20T17:10:41.274Z,101688.00
2019-01-20T17:13:11.366Z,101694.00
2019-01-20T17:15:42.707Z,101687.00
2019-01-20T17:18:13.241Z,101695.00
2019-01-20T17:20:42.811Z,101698.00
2019-01-20T17:23:12.168Z,101696.00
2019-01-20T17:25:41.827Z,101698.00
2019-01-20T17:28:11.564Z,101689.00
2019-01-20T17:30:41.398Z,101690.00
2019-01-20T17:33:12.617Z,101706.00
2019-01-20T17:35:42.001Z,101706.00
2019-01-20T17:38:11.383Z,101706.00
2019-01-20T17:40:41.065Z,101712.00
2019-01-20T17:43:10.441Z,101711.00
2019-01-20T17:45:48.624Z,101710.00
2019-01-20T17:48:15.014Z,101715.00
2019-01-20T17:50:44.931Z,101719.00
2019-01-20T17:53:14.311Z,101728.00
2019-01-20T17:55:43.694Z,101723.00
2019-01-20T17:58:13.068Z,101722.00
2019-01-20T18:00:44.130Z,101714.00
2019-01-20T18:03:13.543Z,101721.00
2019-01-20T18:05:43.244Z,101726.00
2019-01-20T18:08:12.629Z,101727.00
2019-01-20T18:10:42.209Z,101732.00
2019-01-20T18:13:11.660Z,101733.00
2019-01-20T18:15:41.122Z,101734.00
2019-01-20T18:18:10.530Z,101737.00
2019-01-20T18:20:39.894Z,101742.00
2019-01-20T18:23:09.263Z,101734.00
2019-01-20T18:25:38.647Z,101751.00
2019-01-20T18:28:08.024Z,101744.00
2019-01-20T18:30:37.797Z,101751.00
2019-01-20T18:33:07.400Z,101752.00
2019-01-20T18:35:36.785Z,101750.00
2019-01-20T18:38:06.229Z,101757.00
2019-01-20T18:40:35.822Z,101748.00
2019-01-20T18:43:05.740Z,101763.00
2019-01-20T18:45:36.172Z,101755.00
2019-01-20T18:48:05.993Z,101765.00
2019-01-20T18:50:37.873Z,101761.00
2019-01-20T18:53:07.599Z,101767.00
2019-01-20T18:55:37.584Z,101760.00
2019-01-20T18:58:07.298Z,101770.00
2019-01-20T19:00:44.111Z,101768.00
2019-01-20T19:03:19.572Z,101777.00
2019-01-20T19:05:48.950Z,101789.00
2019-01-20T19:08:18.364Z,101791.00
2019-01-20T19:10:48.109Z,101795.00
2019-01-20T19:13:17.622Z,101795.00
2019-01-20T19:15:47.322Z,101795.00
2019-01-20T19:18:19.214Z,101795.00
2019-01-20T19:20:47.878Z,101801.00
2019-01-20T19:23:18.443Z,101795.00
2019-01-20T19:25:47.879Z,101806.00
2019-01-20T19:28:17.259Z,101804.00
2019-01-20T19:30:46.644Z,101804.00
2019-01-20T19:33:16.362Z,101812.00
2019-01-20T19:35:45.812Z,101815.00
2019-01-20T19:38:15.189Z,101815.00
2019-01-20T19:40:44.631Z,101822.00
2019-01-20T19:43:14.001Z,101820.00
2019-01-20T19:45:43.404Z,101823.00
2019-01-20T19:48:19.914Z,101827.00
2019-01-20T19:50:43.903Z,101827.00
2019-01-20T19:53:13.292Z,101827.00
2019-01-20T19:55:42.929Z,101826.00
2019-01-20T19:58:12.370Z,101833.00
2019-01-20T20:00:41.755Z,101832.00
2019-01-20T20:03:11.148Z,101827.00
2019-01-20T20:05:40.622Z,101845.00
2019-01-20T20:08:10.003Z,101837.00
2019-01-20T20:10:39.735Z,101845.00
2019-01-20T20:13:09.124Z,101859.00
2019-01-20T20:15:38.503Z,101847.00
2019-01-20T20:18:08.175Z,101844.00
2019-01-20T20:20:37.587Z,101848.00
2019-01-20T20:23:07.217Z,101863.00
2019-01-20T20:25:36.919Z,101849.00
2019-01-20T20:28:06.293Z,101865.00
2019-01-20T20:30:36.239Z,101864.00
2019-01-20T20:33:06.517Z,101853.00
2019-01-20T20:35:36.151Z,101851.00
2019-01-20T20:38:05.678Z,101860.00
2019-01-20T20:40:35.184Z,101869.00
2019-01-20T20:43:04.725Z,101872.00
2019-01-20T20:45:34.136Z,101875.00
2019-01-20T20:48:03.546Z,101875.00
2019-01-20T20:50:32.929Z,101880.00
2019-01-20T20:53:02.311Z,101877.00
2019-01-20T20:55:31.711Z,101881.00
2019-01-20T20:58:01.108Z,101872.00
2019-01-20T21:00:39.333Z,101882.00
2019-01-20T21:03:11.759Z,101879.00
2019-01-20T21:05:41.148Z,101882.00
2019-01-20T21:08:10.659Z,101871.00
2019-01-20T21:10:40.041Z,101878.00
2019-01-20T21:13:09.679Z,101886.00
2019-01-20T21:15:39.157Z,101883.00
2019-01-20T21:18:08.887Z,101880.00
2019-01-20T21:20:38.287Z,101881.00
2019-01-20T21:23:12.008Z,101874.00
2019-01-20T21:25:38.893Z,101888.00
2019-01-20T21:28:08.272Z,101888.00
2019-01-20T21:30:39.127Z,101890.00
2019-01-20T21:33:08.711Z,101892.00
2019-01-20T21:35:38.092Z,101901.00
2019-01-20T21:38:07.479Z,101904.00
2019-01-20T21:40:37.161Z,101905.00
2019-01-20T21:43:06.559Z,101909.00
2019-01-20T21:45:36.222Z,101909.00
2019-01-20T21:48:05.599Z,101913.00
2019-01-20T21:50:35.887Z,101924.00
2019-01-20T21:53:05.280Z,101917.00
2019-01-20T21:55:35.306Z,101919.00
2019-01-20T21:58:04.847Z,101929.00
2019-01-20T22:00:34.231Z,101922.00
2019-01-20T22:03:05.152Z,101921.00
2019-01-20T22:05:34.540Z,101929.00
2019-01-20T22:08:04.222Z,101927.00
2019-01-20T22:10:33.614Z,101930.00
2019-01-20T22:13:02.990Z,101924.00
2019-01-20T22:15:33.547Z,101926.00
2019-01-20T22:18:03.202Z,101929.00
2019-01-20T22:20:32.681Z,101923.00
2019-01-20T22:23:02.074Z,101924.00
2019-01-20T22:25:31.453Z,101929.00
2019-01-20T22:28:00.835Z,101921.00
2019-01-20T22:30:32.205Z,101923.00
2019-01-20T22:33:01.577Z,101929.00
2019-01-20T22:35:30.965Z,101930.00
2019-01-20T22:38:03.267Z,101915.00
2019-01-20T22:40:32.648Z,101924.00
2019-01-20T22:43:02.033Z,101920.00
2019-01-20T22:45:31.983Z,101922.00
2019-01-20T22:48:01.384Z,101920.00
2019-01-20T22:50:30.834Z,101922.00
2019-01-20T22:53:00.270Z,101922.00
2019-01-20T22:55:29.651Z,101916.00
2019-01-20T22:57:59.020Z,101919.00
2019-01-20T23:00:47.198Z,101923.00
2019-01-20T23:03:16.750Z,101923.00
2019-01-20T23:05:46.464Z,101924.00
2019-01-20T23:08:15.906Z,101921.00
2019-01-20T23:10:45.284Z,101919.00
2019-01-20T23:13:14.691Z,101916.00
2019-01-20T23:15:44.130Z,101928.00
2019-01-20T23:18:13.791Z,101929.00
2019-01-20T23:20:43.175Z,101923.00
2019-01-20T23:23:12.820Z,101929.00
2019-01-20T23:25:42.205Z,101923.00
2019-01-20T23:28:11.845Z,101925.00
2019-01-20T23:30:41.455Z,101930.00
2019-01-20T23:33:10.818Z,101921.00
2019-01-20T23:35:40.201Z,101924.00
2019-01-20T23:38:09.591Z,101917.00
2019-01-20T23:40:38.971Z,101923.00
2019-01-20T23:43:08.349Z,101928.00
2019-01-20T23:45:37.734Z,101922.00
2019-01-20T23:48:07.434Z,101925.00
2019-01-20T23:50:36.808Z,101922.00
2019-01-20T23:53:06.221Z,101921.00
2019-01-20T23:55:35.610Z,101920.00
2019-01-20T23:58:05.718Z,101923.00
